Time;durP1;ratioP1;P1;durP2;ratioP2;P2;SDS_P1;SDS_P2;PMS_P1;PMS_P2;Temp;Humidity;BMP_temperature;BMP_pressure;BME280_temperature;BME280_humidity;BME280_pressure;Samples;Min_cycle;Max_cycle;Signal;HPM_P1;HPM_P2
2022/11/15 00:00:14;;;;;;;0.00;0.00;;;;;;;6.99;100.00;99985.22;5010788;28;20172;-83
2022/11/15 00:02:39;;;;;;;0.10;0.10;;;;;;;6.99;100.00;99987.13;5010821;28;20189;-86
2022/11/15 00:05:04;;;;;;;0.43;0.43;;;;;;;6.93;100.00;99989.13;5010793;28;20617;-83
2022/11/15 00:07:30;;;;;;;0.00;0.00;;;;;;;6.91;100.00;99982.38;5011072;28;20177;-84
2022/11/15 00:09:55;;;;;;;0.00;0.00;;;;;;;6.95;100.00;99984.22;5010895;28;20628;-83
2022/11/15 00:12:20;;;;;;;0.00;0.00;;;;;;;6.99;100.00;99993.38;5010777;28;20177;-82
2022/11/15 00:14:45;;;;;;;0.57;0.57;;;;;;;7.02;100.00;99981.91;5010611;28;20215;-81
2022/11/15 00:17:11;;;;;;;0.00;0.00;;;;;;;7.05;100.00;99981.31;5010969;28;20176;-83
2022/11/15 00:19:36;;;;;;;0.00;0.00;;;;;;;7.22;100.00;99978.00;5010777;28;20188;-80
2022/11/15 00:22:01;;;;;;;0.00;0.00;;;;;;;7.33;100.00;99981.34;5010752;28;20181;-87
2022/11/15 00:24:27;;;;;;;0.40;0.40;;;;;;;7.34;100.00;99972.09;5011202;28;20176;-79
2022/11/15 00:26:52;;;;;;;0.00;0.00;;;;;;;7.53;100.00;99964.66;5010602;28;20306;-83
2022/11/15 00:29:17;;;;;;;0.00;0.00;;;;;;;7.55;100.00;99956.19;5010771;28;20255;-79
2022/11/15 00:31:43;;;;;;;0.40;0.40;;;;;;;7.70;100.00;99962.13;5010700;28;20624;-85
2022/11/15 00:34:10;;;;;;;0.43;0.43;;;;;;;7.91;100.00;99969.81;5010425;28;20647;-85
2022/11/15 00:36:35;;;;;;;0.23;0.23;;;;;;;8.03;100.00;99961.94;5010582;28;20181;-86
2022/11/15 00:39:03;;;;;;;0.87;0.87;;;;;;;8.27;100.00;99978.81;5010738;28;20176;-81
2022/11/15 00:41:28;;;;;;;0.00;0.00;;;;;;;8.49;100.00;99969.88;5010589;28;20622;-81
2022/11/15 00:43:54;;;;;;;0.30;0.30;;;;;;;8.67;100.00;99964.56;5010550;28;20187;-83
2022/11/15 00:46:19;;;;;;;0.53;0.40;;;;;;;8.82;100.00;99961.44;5010342;28;20192;-78
2022/11/15 00:48:44;;;;;;;0.00;0.00;;;;;;;8.97;100.00;99962.97;5010578;28;20177;-75
2022/11/15 00:51:10;;;;;;;1.10;0.83;;;;;;;9.07;100.00;99968.97;5010717;28;20183;-85
2022/11/15 00:53:35;;;;;;;0.53;0.53;;;;;;;9.16;100.00;99972.56;5010566;28;20195;-86
2022/11/15 00:56:00;;;;;;;3.30;2.00;;;;;;;9.34;100.00;99964.44;5029736;28;20204;-84
2022/11/15 00:58:25;;;;;;;0.00;0.00;;;;;;;9.51;100.00;99965.31;5030191;28;20207;-86
2022/11/15 01:00:51;;;;;;;0.57;0.57;;;;;;;9.57;100.00;99959.72;5030286;28;20209;-77
2022/11/15 01:03:16;;;;;;;1.17;1.13;;;;;;;9.57;100.00;99965.19;5030155;28;20184;-79
2022/11/15 01:05:41;;;;;;;0.47;0.47;;;;;;;9.63;100.00;99961.19;5030061;28;20255;-78
2022/11/15 01:08:12;;;;;;;0.87;0.63;;;;;;;9.63;100.00;99955.72;5033383;28;20203;-76
2022/11/15 01:10:37;;;;;;;1.20;1.20;;;;;;;9.70;100.00;99953.34;5033611;28;20179;-75
2022/11/15 01:13:03;;;;;;;2.70;1.90;;;;;;;9.70;100.00;99950.63;5033359;28;20654;-76
2022/11/15 01:15:28;;;;;;;1.60;1.13;;;;;;;9.69;100.00;99943.53;5033349;28;20298;-77
2022/11/15 01:17:54;;;;;;;1.93;1.83;;;;;;;9.79;100.00;99944.03;5033802;28;20188;-77
2022/11/15 01:20:20;;;;;;;1.00;1.00;;;;;;;9.79;100.00;99935.84;5033435;28;20172;-75
2022/11/15 01:22:45;;;;;;;0.43;0.43;;;;;;;9.82;100.00;99924.31;5033166;28;20195;-76
2022/11/15 01:25:10;;;;;;;0.20;0.20;;;;;;;9.89;100.00;99925.75;5033263;28;20186;-76
2022/11/15 01:27:35;;;;;;;1.67;1.57;;;;;;;9.88;100.00;99921.44;5033332;28;20226;-77
2022/11/15 01:30:01;;;;;;;0.63;0.63;;;;;;;9.86;100.00;99913.56;5033339;28;20176;-78
2022/11/15 01:32:26;;;;;;;1.17;1.17;;;;;;;9.93;100.00;99924.81;5033113;28;20176;-76
2022/11/15 01:34:51;;;;;;;0.00;0.00;;;;;;;9.92;100.00;99917.75;5033008;28;20203;-75
2022/11/15 01:37:17;;;;;;;0.77;0.77;;;;;;;9.85;100.00;99903.78;5033012;28;20259;-77
2022/11/15 01:39:42;;;;;;;0.40;0.40;;;;;;;9.99;100.00;99906.38;5033050;28;20172;-80
2022/11/15 01:42:12;;;;;;;0.27;0.20;;;;;;;9.91;100.00;99898.97;5033150;28;20180;-77
2022/11/15 01:44:49;;;;;;;6.80;0.80;;;;;;;9.90;100.00;99900.09;5032842;28;20187;-76
2022/11/15 01:47:25;;;;;;;0.07;0.07;;;;;;;10.02;100.00;99898.34;5032951;28;20654;-76
2022/11/15 01:50:12;;;;;;;1.03;0.87;;;;;;;10.10;100.00;99904.91;5032611;28;20183;-75
2022/11/15 01:52:39;;;;;;;1.77;1.60;;;;;;;10.16;100.00;99905.56;5032717;28;20558;-76
2022/11/15 01:55:09;;;;;;;0.10;0.10;;;;;;;10.19;100.00;99896.72;5032690;28;20258;-76
2022/11/15 01:57:35;;;;;;;0.67;0.67;;;;;;;10.17;100.00;99905.22;5032801;28;20172;-76
2022/11/15 02:00:03;;;;;;;0.00;0.00;;;;;;;10.14;100.00;99903.16;5032845;28;20266;-76
2022/11/15 02:02:28;;;;;;;1.27;1.27;;;;;;;10.27;100.00;99901.38;5032776;28;20600;-75
2022/11/15 02:04:53;;;;;;;2.30;2.10;;;;;;;10.29;100.00;99899.16;5032632;28;20230;-75
2022/11/15 02:07:21;;;;;;;0.20;0.20;;;;;;;10.19;100.00;99896.72;5032716;28;20191;-76
2022/11/15 02:09:47;;;;;;;0.67;0.67;;;;;;;10.27;100.00;99896.75;5032677;28;20204;-76
2022/11/15 02:12:17;;;;;;;0.00;0.00;;;;;;;10.27;100.00;99888.56;5032622;28;20184;-77
2022/11/15 02:14:47;;;;;;;2.10;1.90;;;;;;;10.23;100.00;99881.31;5032698;28;20265;-77
2022/11/15 02:17:47;;;;;;;0.07;0.07;;;;;;;10.27;100.00;99874.91;5032119;28;20179;-76
2022/11/15 02:20:53;;;;;;;1.30;1.23;;;;;;;10.40;100.00;99873.09;5032361;28;20339;-74
2022/11/15 02:23:21;;;;;;;0.43;0.43;;;;;;;10.42;100.00;99870.88;5032415;28;20269;-82
2022/11/15 02:25:49;;;;;;;1.83;1.73;;;;;;;10.51;100.00;99876.31;5033394;28;20188;-83
2022/11/15 02:28:40;;;;;;;0.40;0.40;;;;;;;10.60;100.00;99871.63;5033130;28;20194;-89
2022/11/15 02:31:17;;;;;;;0.10;0.10;;;;;;;10.57;100.00;99864.91;5032612;28;20179;-75
2022/11/15 02:34:14;;;;;;;0.17;0.17;;;;;;;10.64;100.00;99869.84;5032651;28;20741;-90
2022/11/15 02:37:00;;;;;;;1.50;1.40;;;;;;;10.60;100.00;99872.44;5010093;28;20204;-92
2022/11/15 02:39:40;;;;;;;0.00;0.00;;;;;;;10.61;100.00;99875.97;5032849;28;20187;-91
2022/11/15 02:45:07;;;;;;;1.03;0.97;;;;;;;10.63;100.00;99866.31;5033540;28;20240;-82
2022/11/15 02:47:41;;;;;;;0.97;0.97;;;;;;;10.62;100.00;99870.16;5032664;28;20184;-86
2022/11/15 02:50:09;;;;;;;0.33;0.33;;;;;;;10.67;100.00;99871.91;5033022;28;20171;-89
2022/11/15 02:52:35;;;;;;;0.23;0.23;;;;;;;10.69;100.00;99862.25;5033079;28;20180;-88
2022/11/15 02:55:01;;;;;;;3.17;2.23;;;;;;;10.79;100.00;99861.13;5032848;28;20212;-91
2022/11/15 02:57:51;;;;;;;0.00;0.00;;;;;;;10.97;100.00;99861.84;5032917;28;20255;-88
2022/11/15 03:00:20;;;;;;;0.00;0.00;;;;;;;10.93;100.00;99858.16;5013269;28;20256;-87
2022/11/15 03:03:04;;;;;;;0.40;0.40;;;;;;;10.93;100.00;99858.97;5012729;28;20271;-80
2022/11/15 03:05:34;;;;;;;0.60;0.60;;;;;;;10.92;100.00;99859.31;5013147;28;20171;-92
2022/11/15 03:08:05;;;;;;;0.00;0.00;;;;;;;10.88;100.00;99855.63;5013572;28;20256;-86
2022/11/15 03:10:49;;;;;;;0.57;0.57;;;;;;;10.82;100.00;99851.47;5013578;28;20215;-88
2022/11/15 03:13:20;;;;;;;0.70;0.70;;;;;;;10.84;100.00;99857.38;5012757;28;20224;-90
2022/11/15 03:16:13;;;;;;;2.03;0.93;;;;;;;10.89;100.00;99870.91;5028468;28;20626;-86
2022/11/15 03:18:43;;;;;;;0.30;0.30;;;;;;;10.97;99.58;99870.03;5013042;28;20181;-89
2022/11/15 03:21:11;;;;;;;1.50;1.40;;;;;;;10.99;99.05;99860.41;5012936;28;20551;-88
2022/11/15 03:23:39;;;;;;;0.30;0.30;;;;;;;11.00;98.54;99862.00;5012736;28;20176;-91
2022/11/15 03:26:08;;;;;;;0.67;0.60;;;;;;;10.98;98.58;99863.44;5013013;28;20207;-86
2022/11/15 03:28:56;;;;;;;0.23;0.23;;;;;;;10.88;98.86;99861.91;5012653;28;20187;-90
2022/11/15 03:34:25;;;;;;;0.83;0.83;;;;;;;10.84;99.27;99860.13;5012829;28;20231;-91
2022/11/15 03:36:52;;;;;;;0.40;0.40;;;;;;;10.86;98.83;99863.34;5012649;28;20192;-92
2022/11/15 03:39:19;;;;;;;0.03;0.03;;;;;;;10.76;98.41;99864.50;5012866;28;20510;-93
2022/11/15 03:42:04;;;;;;;5.07;1.00;;;;;;;10.77;98.73;99862.56;5012822;28;20180;-91
2022/11/15 03:44:52;;;;;;;0.10;0.10;;;;;;;10.71;98.55;99865.50;5012703;28;20259;-85
2022/11/15 03:47:27;;;;;;;0.00;0.00;;;;;;;10.70;98.11;99866.63;5012328;28;20283;-88
2022/11/15 03:49:59;;;;;;;0.63;0.63;;;;;;;10.59;99.04;99872.75;5012428;28;20178;-93
2022/11/15 03:52:24;;;;;;;0.00;0.00;;;;;;;10.63;99.29;99870.97;5012596;28;20196;-90
2022/11/15 03:54:53;;;;;;;0.00;0.00;;;;;;;10.56;98.93;99870.66;5012659;28;20244;-89
2022/11/15 03:57:18;;;;;;;0.10;0.10;;;;;;;10.40;99.72;99868.44;5012699;28;20267;-88
2022/11/15 03:59:44;;;;;;;0.00;0.00;;;;;;;10.40;100.00;99865.72;5012582;28;20272;-91
2022/11/15 04:02:09;;;;;;;0.07;0.07;;;;;;;10.37;100.00;99865.56;5012211;28;20173;-92
2022/11/15 04:04:34;;;;;;;2.73;0.77;;;;;;;10.40;99.89;99862.19;5012175;28;20523;-91
2022/11/15 04:06:59;;;;;;;0.00;0.00;;;;;;;10.29;100.00;99861.75;5012170;28;20246;-90
2022/11/15 04:09:25;;;;;;;0.20;0.20;;;;;;;10.26;100.00;99856.91;5012264;28;20187;-90
2022/11/15 04:11:50;;;;;;;0.00;0.00;;;;;;;10.22;100.00;99855.16;5012432;28;20242;-90
2022/11/15 04:14:15;;;;;;;0.00;0.00;;;;;;;10.17;100.00;99861.56;5028652;28;20230;-90
2022/11/15 04:16:40;;;;;;;0.00;0.00;;;;;;;10.23;100.00;99856.75;5032117;28;20184;-91
2022/11/15 04:24:34;;;;;;;0.40;0.40;;;;;;;9.92;100.00;99865.91;5031879;28;20235;-92
2022/11/15 04:26:59;;;;;;;0.00;0.00;;;;;;;9.95;100.00;99867.97;5031766;28;20176;-91
2022/11/15 04:29:34;;;;;;;0.00;0.00;;;;;;;9.77;100.00;99871.81;5031937;28;20238;-91
2022/11/15 04:31:59;;;;;;;0.00;0.00;;;;;;;9.50;100.00;99864.72;5032379;28;20163;-86
2022/11/15 04:34:24;;;;;;;0.60;0.60;;;;;;;9.28;100.00;99865.66;5031767;28;20188;-93
2022/11/15 04:39:33;;;;;;;0.00;0.00;;;;;;;9.30;100.00;99860.69;5031964;28;20226;-91
2022/11/15 04:41:59;;;;;;;0.00;0.00;;;;;;;9.36;100.00;99861.34;5034080;28;20180;-86
2022/11/15 04:44:24;;;;;;;0.00;0.00;;;;;;;9.39;100.00;99857.97;5035392;28;20253;-90
2022/11/15 04:46:49;;;;;;;0.00;0.00;;;;;;;9.36;100.00;99853.97;5035347;28;20187;-89
2022/11/15 04:49:14;;;;;;;0.00;0.00;;;;;;;9.47;100.00;99868.91;5035207;28;20168;-84
2022/11/15 04:51:40;;;;;;;0.00;0.00;;;;;;;9.58;100.00;99863.16;5035382;28;20203;-91
2022/11/15 04:54:05;;;;;;;0.00;0.00;;;;;;;9.63;100.00;99857.53;5035263;28;20267;-91
2022/11/15 04:56:30;;;;;;;0.60;0.40;;;;;;;9.57;100.00;99858.81;5036012;28;20175;-87
2022/11/15 04:58:56;;;;;;;0.00;0.00;;;;;;;9.51;100.00;99858.97;5035937;28;20183;-90
2022/11/15 05:01:21;;;;;;;1.83;1.73;;;;;;;9.50;100.00;99854.63;5035669;28;20188;-88
2022/11/15 05:06:30;;;;;;;0.00;0.00;;;;;;;9.36;100.00;99856.69;5035720;28;20596;-90
2022/11/15 05:08:56;;;;;;;0.00;0.00;;;;;;;9.32;100.00;99857.66;5034933;28;20180;-87
2022/11/15 05:11:22;;;;;;;0.00;0.00;;;;;;;9.35;100.00;99859.72;5034982;28;20175;-86
2022/11/15 05:13:47;;;;;;;0.00;0.00;;;;;;;9.29;100.00;99861.00;5034960;28;20642;-86
2022/11/15 05:16:12;;;;;;;0.30;0.30;;;;;;;9.40;100.00;99865.84;5035131;28;20667;-92
2022/11/15 05:18:40;;;;;;;0.00;0.00;;;;;;;9.30;100.00;99860.69;5034922;28;20172;-90
2022/11/15 05:21:07;;;;;;;0.00;0.00;;;;;;;9.28;100.00;99859.41;5034621;28;20176;-90
2022/11/15 05:23:33;;;;;;;0.00;0.00;;;;;;;9.18;100.00;99855.03;5034617;28;20619;-89
2022/11/15 05:26:00;;;;;;;0.00;0.00;;;;;;;9.03;100.00;99850.81;5034668;28;20187;-87
2022/11/15 05:28:25;;;;;;;0.13;0.13;;;;;;;9.15;100.00;99858.41;5034510;28;20176;-87
2022/11/15 05:30:50;;;;;;;0.00;0.00;;;;;;;9.24;100.00;99853.75;5035066;28;20176;-92
2022/11/15 05:33:16;;;;;;;0.00;0.00;;;;;;;9.15;100.00;99850.22;5034167;28;20191;-89
2022/11/15 05:35:46;;;;;;;0.00;0.00;;;;;;;9.18;100.00;99847.66;5034554;28;20200;-86
2022/11/15 05:38:11;;;;;;;0.00;0.00;;;;;;;9.05;100.00;99851.31;5034936;28;20168;-88
2022/11/15 05:40:37;;;;;;;0.00;0.00;;;;;;;9.02;100.00;99846.50;5034754;28;20616;-90
2022/11/15 05:43:04;;;;;;;0.33;0.20;;;;;;;9.18;100.00;99849.59;5034732;28;20172;-92
2022/11/15 05:45:32;;;;;;;0.00;0.00;;;;;;;9.04;100.00;99849.72;5034298;28;20187;-84
2022/11/15 05:48:00;;;;;;;0.00;0.00;;;;;;;8.99;100.00;99854.50;5034588;28;20364;-86
2022/11/15 05:50:25;;;;;;;0.00;0.00;;;;;;;8.94;100.00;99847.25;5033958;28;20176;-88
2022/11/15 05:52:51;;;;;;;0.00;0.00;;;;;;;8.94;100.00;99858.97;5033557;28;20182;-90
2022/11/15 05:55:17;;;;;;;0.00;0.00;;;;;;;8.74;100.00;99858.72;5034221;28;20235;-77
2022/11/15 05:57:43;;;;;;;0.00;0.00;;;;;;;8.53;100.00;99853.00;5033664;28;20172;-75
2022/11/15 06:00:09;;;;;;;0.00;0.00;;;;;;;8.58;100.00;99850.97;5035585;28;20283;-77
2022/11/15 06:02:34;;;;;;;0.00;0.00;;;;;;;8.64;100.00;99851.63;5033548;28;20171;-74
2022/11/15 06:05:00;;;;;;;0.00;0.00;;;;;;;8.65;100.00;99848.56;5032743;28;20321;-74
2022/11/15 06:07:25;;;;;;;0.23;0.23;;;;;;;8.66;100.00;99854.81;5032574;28;20180;-75
2022/11/15 06:09:50;;;;;;;0.00;0.00;;;;;;;8.60;100.00;99853.38;5032526;28;20183;-74
2022/11/15 06:12:16;;;;;;;0.00;0.00;;;;;;;8.53;100.00;99839.38;5032558;28;20176;-75
2022/11/15 06:14:41;;;;;;;1.40;1.30;;;;;;;8.29;100.00;99853.31;5032505;28;20235;-74
2022/11/15 06:17:06;;;;;;;0.00;0.00;;;;;;;8.38;100.00;99850.66;5032549;28;20183;-74
2022/11/15 06:19:32;;;;;;;0.00;0.00;;;;;;;8.34;100.00;99861.38;5032622;28;20184;-74
2022/11/15 06:22:01;;;;;;;0.60;0.60;;;;;;;8.33;100.00;99870.63;5032281;28;20263;-75
2022/11/15 06:24:27;;;;;;;0.00;0.00;;;;;;;8.21;100.00;99873.91;5032326;28;20517;-75
2022/11/15 06:26:52;;;;;;;0.17;0.17;;;;;;;8.24;100.00;99872.47;5032180;28;20182;-74
2022/11/15 06:29:18;;;;;;;0.00;0.00;;;;;;;8.30;100.00;99880.22;5032332;28;20179;-74
2022/11/15 06:31:43;;;;;;;0.00;0.00;;;;;;;8.40;100.00;99875.69;5032154;28;20184;-75
2022/11/15 06:34:08;;;;;;;0.00;0.00;;;;;;;8.51;100.00;99877.00;5032239;28;20180;-75
2022/11/15 06:36:35;;;;;;;0.00;0.00;;;;;;;8.55;100.00;99883.47;5032080;28;20176;-75
2022/11/15 06:39:00;;;;;;;0.37;0.37;;;;;;;8.58;100.00;99878.19;5031916;28;20172;-77
2022/11/15 06:41:26;;;;;;;0.00;0.00;;;;;;;8.57;100.00;99883.94;5032476;28;20532;-75
2022/11/15 06:43:51;;;;;;;0.00;0.00;;;;;;;8.68;100.00;99884.47;5032084;28;20631;-74
2022/11/15 06:46:16;;;;;;;0.73;0.73;;;;;;;8.69;100.00;99892.34;5031890;28;20718;-74
2022/11/15 06:48:42;;;;;;;0.00;0.00;;;;;;;8.68;100.00;99879.03;5032125;28;20176;-75
2022/11/15 06:51:07;;;;;;;0.33;0.33;;;;;;;8.78;100.00;99881.47;5039202;28;20203;-76
2022/11/15 06:53:33;;;;;;;0.83;0.63;;;;;;;8.83;100.00;99873.19;5038653;28;20176;-79
2022/11/15 06:56:00;;;;;;;0.00;0.00;;;;;;;8.79;100.00;99881.16;5033208;28;20258;-82
2022/11/15 06:58:25;;;;;;;0.10;0.10;;;;;;;8.91;100.00;99889.56;5031650;28;20178;-80
2022/11/15 07:00:51;;;;;;;0.00;0.00;;;;;;;8.92;100.00;99895.81;5031602;28;20176;-82
2022/11/15 07:03:16;;;;;;;0.10;0.10;;;;;;;8.99;100.00;99904.34;5031031;28;20186;-84
2022/11/15 07:05:41;;;;;;;0.00;0.00;;;;;;;8.93;100.00;99892.78;5030918;28;20211;-84
2022/11/15 07:08:07;;;;;;;0.00;0.00;;;;;;;8.91;100.00;99889.56;5031413;28;20664;-79
2022/11/15 07:10:32;;;;;;;0.00;0.00;;;;;;;9.02;100.00;99903.72;5031441;28;20180;-81
2022/11/15 07:12:57;;;;;;;0.30;0.30;;;;;;;9.08;100.00;99901.66;5031323;28;20222;-85
2022/11/15 07:15:25;;;;;;;0.00;0.00;;;;;;;9.00;100.00;99897.78;5031263;28;20212;-82
2022/11/15 07:17:51;;;;;;;0.00;0.00;;;;;;;9.03;100.00;99894.44;5031679;28;20175;-85
2022/11/15 07:20:16;;;;;;;0.00;0.00;;;;;;;8.98;100.00;99888.31;5031678;28;20562;-84
2022/11/15 07:22:42;;;;;;;0.00;0.00;;;;;;;9.00;100.00;99883.34;5031169;28;20175;-84
2022/11/15 07:25:08;;;;;;;0.00;0.00;;;;;;;8.99;100.00;99889.94;5031277;28;20631;-82
2022/11/15 07:27:34;;;;;;;0.00;0.00;;;;;;;8.92;100.00;99899.34;5031351;28;20180;-83
2022/11/15 07:29:59;;;;;;;2.33;2.23;;;;;;;8.96;100.00;99896.78;5031109;28;20183;-79
2022/11/15 07:32:24;;;;;;;0.00;0.00;;;;;;;8.88;100.00;99887.47;5031094;28;20651;-75
2022/11/15 07:34:50;;;;;;;0.00;0.00;;;;;;;8.92;100.00;99891.16;5030964;28;20203;-74
2022/11/15 07:37:16;;;;;;;0.00;0.00;;;;;;;8.93;100.00;99892.78;5030913;28;20175;-79
2022/11/15 07:39:42;;;;;;;0.00;0.00;;;;;;;8.87;100.00;99899.47;5031066;28;20164;-79
2022/11/15 07:44:51;;;;;;;0.00;0.00;;;;;;;8.94;100.00;99893.56;5030628;28;20187;-80
2022/11/15 07:47:16;;;;;;;0.00;0.00;;;;;;;9.04;100.00;99893.31;5030791;28;20188;-75
2022/11/15 07:49:41;;;;;;;0.00;0.00;;;;;;;9.10;100.00;99885.78;5030534;28;20202;-79
2022/11/15 07:52:07;;;;;;;0.00;0.00;;;;;;;9.11;100.00;99892.84;5030764;28;20176;-75
2022/11/15 07:54:32;;;;;;;0.10;0.10;;;;;;;9.18;100.00;99895.91;5030376;28;20278;-74
2022/11/15 07:56:57;;;;;;;0.00;0.00;;;;;;;9.19;100.00;99892.06;5030974;28;20199;-74
2022/11/15 07:59:23;;;;;;;0.00;0.00;;;;;;;9.28;100.00;99890.19;5030604;28;20195;-74
2022/11/15 08:01:48;;;;;;;0.10;0.10;;;;;;;9.33;100.00;99895.50;5030532;28;20186;-77
2022/11/15 08:04:13;;;;;;;1.20;0.77;;;;;;;9.37;100.00;99896.44;5030259;28;20183;-75
2022/11/15 08:06:39;;;;;;;0.00;0.00;;;;;;;9.36;100.00;99883.94;5030371;28;20546;-74
2022/11/15 08:09:04;;;;;;;0.20;0.20;;;;;;;9.37;100.00;99876.56;5030546;28;20176;-77
2022/11/15 08:11:30;;;;;;;2.77;2.67;;;;;;;9.37;100.00;99884.75;5030533;28;20627;-74
2022/11/15 08:13:55;;;;;;;0.07;0.07;;;;;;;9.38;100.00;99880.91;5030414;28;20234;-75
2022/11/15 08:16:20;;;;;;;1.13;1.13;;;;;;;9.36;100.00;99883.94;5032911;28;20219;-73
2022/11/15 08:18:46;;;;;;;0.00;0.00;;;;;;;9.42;100.00;99881.91;5034581;28;20191;-75
2022/11/15 08:21:17;;;;;;;0.53;0.53;;;;;;;9.46;100.00;99880.94;5034259;28;20245;-74
2022/11/15 08:23:42;;;;;;;0.37;0.37;;;;;;;9.38;100.00;99876.25;5034673;28;20199;-75
2022/11/15 08:26:08;;;;;;;0.00;0.00;;;;;;;9.47;100.00;99879.00;5034476;28;20261;-74
2022/11/15 08:28:33;;;;;;;0.00;0.00;;;;;;;9.49;100.00;99887.66;5034527;28;20512;-75
2022/11/15 08:30:59;;;;;;;0.00;0.00;;;;;;;9.57;100.00;99886.09;5034304;28;20529;-75
2022/11/15 08:33:24;;;;;;;0.00;0.00;;;;;;;9.61;100.00;99881.59;5034594;28;20179;-75
2022/11/15 08:35:49;;;;;;;0.23;0.13;;;;;;;9.70;100.00;99887.88;5034188;28;20219;-74
2022/11/15 08:38:15;;;;;;;0.00;0.00;;;;;;;9.78;100.00;99890.59;5034674;28;20176;-74
2022/11/15 08:40:40;;;;;;;0.00;0.00;;;;;;;9.87;100.00;99881.63;5034122;28;20188;-79
2022/11/15 08:43:05;;;;;;;0.00;0.00;;;;;;;9.98;100.00;99880.16;5033978;28;20674;-75
2022/11/15 08:45:31;;;;;;;0.97;0.97;;;;;;;10.18;100.00;99881.47;5033842;28;20219;-74
2022/11/15 08:47:57;;;;;;;0.37;0.37;;;;;;;10.30;100.00;99890.66;5034237;28;20194;-79
2022/11/15 08:50:22;;;;;;;0.00;0.00;;;;;;;10.38;100.00;99867.97;5034162;28;20183;-80
2022/11/15 08:52:49;;;;;;;1.73;1.63;;;;;;;10.57;100.00;99873.09;5033919;28;20172;-75
2022/11/15 08:55:14;;;;;;;0.60;0.60;;;;;;;10.67;100.00;99864.53;5015726;28;20631;-77
2022/11/15 08:57:39;;;;;;;1.03;0.83;;;;;;;10.71;99.31;99865.50;5034003;28;20208;-79
2022/11/15 09:00:06;;;;;;;0.00;0.00;;;;;;;10.87;98.95;99871.22;5034046;28;20624;-78
2022/11/15 09:02:31;;;;;;;0.27;0.27;;;;;;;11.05;98.02;99863.75;5033785;28;20662;-86
2022/11/15 09:04:56;;;;;;;0.00;0.00;;;;;;;11.12;97.05;99860.50;5015880;28;20571;-78
2022/11/15 09:07:22;;;;;;;0.10;0.10;;;;;;;11.26;96.27;99859.13;5033893;28;20211;-76
2022/11/15 09:09:47;;;;;;;0.00;0.00;;;;;;;11.35;95.47;99870.03;5032104;28;20253;-77
2022/11/15 09:12:12;;;;;;;0.00;0.00;;;;;;;11.42;94.83;99869.50;5033362;28;20647;-75
2022/11/15 09:14:38;;;;;;;0.00;0.00;;;;;;;11.49;95.20;99870.59;5033349;28;20655;-75
2022/11/15 09:17:03;;;;;;;0.00;0.00;;;;;;;11.56;95.58;99889.19;5033434;28;20259;-75
2022/11/15 09:19:29;;;;;;;0.20;0.07;;;;;;;11.63;95.37;99886.75;5033473;28;20263;-77
2022/11/15 09:21:54;;;;;;;0.20;0.20;;;;;;;11.62;95.06;99879.69;5033451;28;20176;-78
2022/11/15 09:24:20;;;;;;;0.00;0.00;;;;;;;11.52;93.87;99883.59;5033175;28;20545;-75
2022/11/15 09:26:46;;;;;;;0.10;0.10;;;;;;;11.53;93.83;99871.53;5032599;28;20176;-76
2022/11/15 09:29:11;;;;;;;0.50;0.50;;;;;;;11.46;92.63;99875.94;5033265;28;20187;-76
2022/11/15 09:31:36;;;;;;;0.20;0.20;;;;;;;11.56;93.44;99878.25;5033407;28;20168;-76
2022/11/15 09:34:02;;;;;;;1.03;1.03;;;;;;;11.52;92.76;99877.31;5032978;28;20199;-75
2022/11/15 09:36:27;;;;;;;2.63;1.60;;;;;;;11.60;92.22;99873.75;5032992;28;20576;-75
2022/11/15 09:38:52;;;;;;;0.40;0.40;;;;;;;11.68;92.00;99872.88;5033018;28;20528;-76
2022/11/15 09:41:40;;;;;;;3.30;0.73;;;;;;;11.76;91.59;99868.47;5033071;28;20199;-75
2022/11/15 09:44:27;;;;;;;1.13;1.13;;;;;;;11.82;91.62;99873.44;5032776;28;20172;-79
2022/11/15 09:47:28;;;;;;;0.00;0.00;;;;;;;11.89;91.11;99873.72;5032836;28;20198;-75
2022/11/15 09:49:57;;;;;;;0.00;0.00;;;;;;;11.99;91.02;99871.69;5032693;28;20638;-77
2022/11/15 09:52:23;;;;;;;0.00;0.00;;;;;;;11.96;90.00;99878.66;5032410;28;20188;-76
2022/11/15 09:54:50;;;;;;;0.03;0.03;;;;;;;11.94;90.19;99869.97;5031051;28;20217;-80
2022/11/15 09:57:21;;;;;;;0.03;0.03;;;;;;;12.04;90.59;99877.00;5033148;28;20187;-83
2022/11/15 09:59:59;;;;;;;0.10;0.10;;;;;;;12.23;90.33;99876.50;5032540;28;20203;-76
2022/11/15 10:02:30;;;;;;;0.00;0.00;;;;;;;12.34;89.51;99875.75;5032219;28;20176;-75
2022/11/15 10:04:58;;;;;;;0.00;0.00;;;;;;;12.39;88.19;99874.72;5032589;28;20176;-76
2022/11/15 10:07:29;;;;;;;0.00;0.00;;;;;;;12.52;87.33;99876.38;5033112;28;20524;-75
2022/11/15 10:10:01;;;;;;;0.83;0.40;;;;;;;12.62;87.42;99870.47;5032564;28;20234;-75
2022/11/15 10:12:28;;;;;;;0.00;0.00;;;;;;;12.60;86.20;99864.53;5032366;28;20270;-76
2022/11/15 10:15:14;;;;;;;0.00;0.00;;;;;;;12.54;85.68;99859.59;5032165;28;20203;-75
2022/11/15 10:18:36;;;;;;;0.73;0.73;;;;;;;12.47;85.51;99863.69;5032240;28;20696;-75
2022/11/15 10:21:23;;;;;;;1.33;1.00;;;;;;;12.48;85.42;99853.53;4969846;28;20352;-75
2022/11/15 10:23:50;;;;;;;0.53;0.53;;;;;;;12.61;85.34;99852.44;4970897;28;20664;-75
2022/11/15 10:26:17;;;;;;;0.00;0.00;;;;;;;12.71;84.33;99851.19;4996417;28;20187;-75
2022/11/15 10:28:42;;;;;;;0.27;0.27;;;;;;;12.76;84.68;99857.25;5012428;28;20203;-79
2022/11/15 10:31:23;;;;;;;0.00;0.00;;;;;;;12.78;84.58;99854.97;5012204;28;20215;-75
2022/11/15 10:33:49;;;;;;;0.00;0.00;;;;;;;12.82;84.75;99857.81;5012128;28;20177;-75
2022/11/15 10:36:17;;;;;;;0.10;0.10;;;;;;;12.88;83.95;99847.44;5012221;28;20216;-76
2022/11/15 10:38:49;;;;;;;0.00;0.00;;;;;;;12.77;84.20;99850.63;5011352;28;20268;-75
2022/11/15 10:41:31;;;;;;;0.20;0.20;;;;;;;12.88;84.31;99848.25;5012394;28;20177;-75
2022/11/15 10:44:31;;;;;;;1.50;1.50;;;;;;;13.01;84.40;99844.34;5012588;28;20238;-78
2022/11/15 10:46:56;;;;;;;0.00;0.00;;;;;;;13.06;83.61;99832.38;5012799;28;20184;-78
2022/11/15 10:49:29;;;;;;;3.93;1.23;;;;;;;12.92;83.62;99837.41;5012657;28;20399;-79
2022/11/15 10:51:58;;;;;;;0.00;0.00;;;;;;;12.89;83.69;99838.09;5032110;28;20180;-87
2022/11/15 10:54:33;;;;;;;0.00;0.00;;;;;;;12.85;83.40;99824.22;5032026;28;20180;-75
2022/11/15 10:57:00;;;;;;;0.00;0.00;;;;;;;12.83;83.80;99821.03;5032550;28;20569;-75
2022/11/15 10:59:31;;;;;;;0.00;0.00;;;;;;;12.87;83.95;99821.94;5031714;28;20172;-76
2022/11/15 11:02:37;;;;;;;0.00;0.00;;;;;;;12.76;84.49;99827.09;5087597;28;20543;-75
2022/11/15 11:05:06;;;;;;;1.07;1.07;;;;;;;12.69;84.36;99826.84;5088299;28;20174;-75
2022/11/15 11:07:34;;;;;;;0.00;0.00;;;;;;;12.68;84.46;99822.50;5088246;28;20196;-76
2022/11/15 11:10:21;;;;;;;0.63;0.57;;;;;;;12.75;83.72;99816.47;5086811;28;20170;-76
2022/11/15 11:12:46;;;;;;;0.00;0.00;;;;;;;12.73;84.41;99814.09;5087828;28;20166;-91
2022/11/15 11:15:15;;;;;;;0.00;0.00;;;;;;;12.73;84.35;99819.56;5086594;28;20193;-76
2022/11/15 11:17:55;;;;;;;0.10;0.10;;;;;;;12.71;84.28;99804.56;5088212;28;20252;-76
2022/11/15 11:20:36;;;;;;;0.00;0.00;;;;;;;12.71;84.71;99804.56;5087831;28;20198;-76
2022/11/15 11:23:41;;;;;;;0.10;0.10;;;;;;;12.74;85.00;99801.97;5087697;28;20169;-76
2022/11/15 11:26:41;;;;;;;0.10;0.10;;;;;;;12.71;85.39;99799.91;5087838;28;20727;-77
2022/11/15 11:29:31;;;;;;;0.00;0.00;;;;;;;12.72;85.09;99800.69;5087760;28;20182;-79
2022/11/15 11:32:17;;;;;;;0.00;0.00;;;;;;;12.73;85.45;99797.63;5087898;28;20192;-76
2022/11/15 11:34:54;;;;;;;0.23;0.23;;;;;;;12.67;84.92;99792.69;5087587;28;20178;-77
2022/11/15 11:37:19;;;;;;;0.00;0.00;;;;;;;12.64;84.48;99799.69;5087667;28;20201;-81
2022/11/15 11:40:02;;;;;;;0.00;0.00;;;;;;;12.63;84.53;99797.28;5086230;28;20622;-75
2022/11/15 11:42:59;;;;;;;0.00;0.00;;;;;;;12.66;84.58;99791.09;5087513;28;20181;-76
2022/11/15 11:45:36;;;;;;;0.50;0.50;;;;;;;12.64;84.89;99788.72;5087751;28;20181;-76
2022/11/15 11:48:20;;;;;;;0.00;0.00;;;;;;;12.64;85.05;99796.13;5087176;28;20660;-76
2022/11/15 11:50:46;;;;;;;0.53;0.53;;;;;;;12.66;84.66;99786.44;5083407;28;20265;-76
2022/11/15 11:53:13;;;;;;;0.00;0.00;;;;;;;12.61;84.54;99789.41;5084646;28;20312;-76
2022/11/15 11:55:45;;;;;;;0.87;0.87;;;;;;;12.70;84.97;99792.81;5087113;28;20170;-76
2022/11/15 11:58:18;;;;;;;0.00;0.00;;;;;;;12.65;85.18;99789.50;5086817;28;20178;-75
2022/11/15 12:00:51;;;;;;;0.10;0.10;;;;;;;12.52;84.77;99788.69;5086936;28;20665;-78